Alvorada de Minas, Brazil
Current Conditions -  °F | °C
As of 12:00 PM on Friday 31 Oct 2014 (Local Time) from SBLS Reporting Station
Rain Showers Rain Showers  
Wind Chill: 81°   Ceiling: 3300
Heat Index: 81°   Visibility: 6mi
Dew Point: 61°   Wind: 5mph
Humidity: 51%   Direction: NA
Pressure: 30.12"   Gusts: NA
Location:  18.74°S, 43.37°W
Report Text: SBLS 311400Z VRB04KT 9999 VCSH FEW025 BKN033 27/16 Q1020
Loading
Personal Weather Stations






























Interactive Weather Map
Tropical Storm Tracking
New forecast layout! Learn more

10-Day Weather Forecast

Advertisements
Track Severe Weather on mobile